Ernest Campbell — WDB3005 — position and weather

sailwx.info

Track history (hours):
 
Tides and Currents Weather Stations Pressure Air Temp Water Temp Dewpoint Dewpoint Depression Visibility Wind Speed Wind Dir Waves Ship Positions

Ernest Campbell

More information available from US FCC via Universal Licensing System and Coast Guard Vessel Documentation Center.

Last reported at 2014-Aug-01 22:33 UTC. Time now 2014-Aug-01 22:41 UTC.
Position N 38°23' W 123°46'.

Length 33 m; draft 4.6 m.

Type: Tow > 200 m length. MMSI: 366882320.

Date/timePositionNaut miles runAvg speedWind from/ knotsBaromVisibWave heightAir tempDewpointWater temp
2014-Aug-01 22:33N 38°23' W 123°46'5 5.2
2014-Aug-01 21:33N 38°18' W 123°44'5 5.2
2014-Aug-01 20:33N 38°13' W 123°43'6 5.7
2014-Aug-01 19:33N 38°07' W 123°41'6 5.5
2014-Aug-01 18:33N 38°02' W 123°40'6 5.5
2014-Aug-01 17:33N 37°57' W 123°38'5 5.4
2014-Aug-01 16:33N 37°52' W 123°36'5 5.2
2014-Aug-01 15:33N 37°47' W 123°34'5 4.9
2014-Aug-01 14:33N 37°42' W 123°31'5 4.9
2014-Aug-01 13:33N 37°38' W 123°27'5 4.8
2014-Aug-01 12:33N 37°34' W 123°24'5 5.0
2014-Aug-01 11:33N 37°30' W 123°21'6 5.6
2014-Aug-01 10:33N 37°26' W 123°16'6 5.9
2014-Aug-01 09:33N 37°21' W 123°12'6 6.2
2014-Aug-01 08:33N 37°15' W 123°08'7 6.7
2014-Aug-01 07:33N 37°10' W 123°04'7 6.8
2014-Aug-01 06:33N 37°04' W 122°59'7 6.8
2014-Aug-01 05:33N 36°58' W 122°55'6 6.4
2014-Aug-01 04:33N 36°53' W 122°50'6 6.2
2014-Aug-01 03:33N 36°48' W 122°46'6 6.2
2014-Aug-01 02:33N 36°43' W 122°42'6 6.0
2014-Aug-01 01:33N 36°38' W 122°37'6 6.0
2014-Aug-01 00:33N 36°32' W 122°33'6 6.1
2014-Jul-31 23:33N 36°27' W 122°30'6 6.1
2014-Jul-31 22:32N 36°22' W 122°25'6 6.2
2014-Jul-31 21:33N 36°17' W 122°21'6 6.2
2014-Jul-31 20:33N 36°13' W 122°16'6 6.4
2014-Jul-31 19:33N 36°07' W 122°11'6 6.5
2014-Jul-31 18:33N 36°02' W 122°07'7 6.7
2014-Jul-31 17:33N 35°56' W 122°03'6 6.4
2014-Jul-31 16:33N 35°50' W 121°59'6 6.2
2014-Jul-31 15:33N 35°45' W 121°55'6 6.4
2014-Jul-31 14:33N 35°40' W 121°51'7 6.7
2014-Jul-31 13:33N 35°34' W 121°46'7 6.7
2014-Jul-31 12:33N 35°29' W 121°41'7 6.7
2014-Jul-31 11:33N 35°23' W 121°36'9 6.8
2014-Jul-31 10:18N 35°16' W 121°31'18 6.5
2014-Jul-31 07:33N 35°00' W 121°20'8 6.6
2014-Jul-31 06:17N 34°54' W 121°14'5 6.5
2014-Jul-31 05:33N 34°50' W 121°11'7 6.6
2014-Jul-31 04:33N 34°45' W 121°06'6 6.3
2014-Jul-31 03:33N 34°39' W 121°02'6 6.0
2014-Jul-31 02:33N 34°34' W 120°58'12 5.6
2014-Jul-31 00:20N 34°26' W 120°47'5 6.0
2014-Jul-30 23:31N 34°24' W 120°41'6 5.8
2014-Jul-30 22:28N 34°23' W 120°34'6 6.1
2014-Jul-30 21:33N 34°21' W 120°28'7 6.1
2014-Jul-30 20:29N 34°19' W 120°20'6 6.4
2014-Jul-30 19:32N 34°18' W 120°13'7 7.1
2014-Jul-30 18:33N 34°16' W 120°05'7 7.0
2014-Jul-30 17:33N 34°14' W 119°57'7 6.8
2014-Jul-30 16:31N 34°12' W 119°49'21 6.4
2014-Jul-30 13:13N 34°07' W 119°24'4 6.1
2014-Jul-30 12:33N 34°06' W 119°20'13 6.7
2014-Jul-30 10:33N 33°60' W 119°05'7 7.5
2014-Jul-30 09:34N 33°56' W 118°57'10 7.3
2014-Jul-30 08:13N 33°52' W 118°47'5 7.1
2014-Jul-30 07:33N 33°49' W 118°42'7 7.0
2014-Jul-30 06:33N 33°45' W 118°35'7 7.0
2014-Jul-30 05:33N 33°42' W 118°28'7 7.3
2014-Jul-30 04:33N 33°39' W 118°20'5 5.4
2014-Jul-30 03:33N 33°43' W 118°16'2 2.3
2014-Jul-30 02:32N 33°45' W 118°16'0 0.0
2014-Jul-30 01:33N 33°45' W 118°16'0 0.0
2014-Jul-30 00:33N 33°45' W 118°16'0 0.0
2014-Jul-29 23:33N 33°45' W 118°16'0 0.0
2014-Jul-29 22:33N 33°45' W 118°16'0 0.0
2014-Jul-29 21:33N 33°45' W 118°16'0 0.0
2014-Jul-29 20:33N 33°45' W 118°16'0 0.0
2014-Jul-29 19:33N 33°45' W 118°16'0 0.0
2014-Jul-29 18:32N 33°45' W 118°16'0 0.0
2014-Jul-29 17:33N 33°45' W 118°16'0 0.0
2014-Jul-29 16:33N 33°45' W 118°16'0 0.0
2014-Jul-29 15:33N 33°45' W 118°16'0 0.0
2014-Jul-29 14:33N 33°45' W 118°16'0 0.0
2014-Jul-29 13:33N 33°45' W 118°16'0 0.0
2014-Jul-29 12:33N 33°45' W 118°16'0 0.0
2014-Jul-29 11:33N 33°45' W 118°16'0 0.0
2014-Jul-29 10:33N 33°45' W 118°16'0 0.0
2014-Jul-29 09:33N 33°45' W 118°16'0 0.0
2014-Jul-29 08:33N 33°45' W 118°16'0 0.0
2014-Jul-29 07:34N 33°45' W 118°16'0 0.0
2014-Jul-29 06:33N 33°45' W 118°16'0 0.0
2014-Jul-29 05:33N 33°45' W 118°16'0 0.0
2014-Jul-29 04:33N 33°45' W 118°16'0 0.1
2014-Jul-29 03:33N 33°45' W 118°17'3 3.3
2014-Jul-29 02:33N 33°44' W 118°13'1 1.2
2014-Jul-29 01:33N 33°45' W 118°13'0 0.0
2014-Jul-29 00:33N 33°45' W 118°13'0 0.0
2014-Jul-28 23:33N 33°45' W 118°13'0 0.0
2014-Jul-28 22:33N 33°45' W 118°13'0 0.0
2014-Jul-28 21:33N 33°45' W 118°13'0 0.0
2014-Jul-28 20:33N 33°45' W 118°13'0 0.0
2014-Jul-28 19:33N 33°45' W 118°13'0 0.0
2014-Jul-28 18:33N 33°45' W 118°13'0 0.0
2014-Jul-28 17:33N 33°45' W 118°13'0 0.0
2014-Jul-28 16:33N 33°45' W 118°13'0 0.0
2014-Jul-28 15:33N 33°45' W 118°13'0 0.0
2014-Jul-28 14:33N 33°45' W 118°13'0 0.0
2014-Jul-28 13:33N 33°45' W 118°13'0 0.0
2014-Jul-28 12:33N 33°45' W 118°13'0 0.0
2014-Jul-28 11:34N 33°45' W 118°13'0 0.0
2014-Jul-28 10:33N 33°45' W 118°13'0 0.0
2014-Jul-28 09:33N 33°45' W 118°13'0 0.0
2014-Jul-28 08:33N 33°45' W 118°13'0 0.0
2014-Jul-28 07:33N 33°45' W 118°13'0 0.0
2014-Jul-28 06:33N 33°45' W 118°13'0 0.0
2014-Jul-28 05:33N 33°45' W 118°13'0 0.0
2014-Jul-28 04:33N 33°45' W 118°13'0 0.0
2014-Jul-28 03:33N 33°45' W 118°13'0 0.0
2014-Jul-28 02:33N 33°45' W 118°13'0 0.0
2014-Jul-28 01:33N 33°45' W 118°13'0 0.0
2014-Jul-28 00:33N 33°45' W 118°13'2 2.4
2014-Jul-27 23:33N 33°43' W 118°14'2 1.6
2014-Jul-27 22:34N 33°44' W 118°16'0 0.0
2014-Jul-27 21:33N 33°44' W 118°16'0 0.0
2014-Jul-27 20:33N 33°44' W 118°16'0 0.0
2014-Jul-27 19:33N 33°44' W 118°16'0 0.0
2014-Jul-27 18:33N 33°44' W 118°16'0 0.0
2014-Jul-27 17:33N 33°44' W 118°16'0 0.0
2014-Jul-27 16:33N 33°44' W 118°16'0 0.0
2014-Jul-27 15:33N 33°44' W 118°16'0 0.0
2014-Jul-27 14:33N 33°44' W 118°16'0 0.0
2014-Jul-27 13:33N 33°44' W 118°16'0 0.0
2014-Jul-27 12:33N 33°44' W 118°16'0 0.0
2014-Jul-27 11:33N 33°44' W 118°16'0 0.0
2014-Jul-27 10:33N 33°44' W 118°16'0 0.0
2014-Jul-27 09:33N 33°44' W 118°16'0 0.0
2014-Jul-27 08:33N 33°44' W 118°16'0 0.0
2014-Jul-27 07:33N 33°44' W 118°16'0 0.0
2014-Jul-27 06:33N 33°44' W 118°16'0 0.0
2014-Jul-27 05:33N 33°44' W 118°16'0 0.0
2014-Jul-27 04:33N 33°44' W 118°16'0 0.0
2014-Jul-27 03:33N 33°44' W 118°16'0 0.0
2014-Jul-27 02:33N 33°44' W 118°16'0 0.0
2014-Jul-27 01:33N 33°44' W 118°16'0 0.0
2014-Jul-27 00:33N 33°44' W 118°16'0 0.1
2014-Jul-26 23:33N 33°44' W 118°16'1 0.7
2014-Jul-26 22:34N 33°43' W 118°16'4 4.1
2014-Jul-26 21:33N 33°47' W 118°13'0 0.0
2014-Jul-26 20:26N 33°47' W 118°13'0 0.0
2014-Jul-26 19:18N 33°47' W 118°13'0 0.0
2014-Jul-26 18:07N 33°47' W 118°13'0 0.0
2014-Jul-26 17:29N 33°47' W 118°13'0 0.0
2014-Jul-26 16:30N 33°47' W 118°13'0 0.0
2014-Jul-26 15:31N 33°47' W 118°13'0 0.0
2014-Jul-26 14:33N 33°47' W 118°13'0 0.0
2014-Jul-26 13:33N 33°47' W 118°13'0 0.0
2014-Jul-26 12:33N 33°47' W 118°13'0 0.0
2014-Jul-26 11:29N 33°47' W 118°13'0 0.0
2014-Jul-26 10:33N 33°47' W 118°13'0 0.0
2014-Jul-26 08:29N 33°47' W 118°13'0 0.0
2014-Jul-26 07:29N 33°47' W 118°13'0 0.0
2014-Jul-26 06:33N 33°47' W 118°13'0 0.0
2014-Jul-26 05:31N 33°47' W 118°13'0 0.0
2014-Jul-26 04:33N 33°47' W 118°13'0 0.0
2014-Jul-26 03:33N 33°47' W 118°13'0 0.0
2014-Jul-26 02:33N 33°47' W 118°13'0 0.0
2014-Jul-26 01:33N 33°47' W 118°13'0 0.0
2014-Jul-26 00:33N 33°47' W 118°13'0 0.0
2014-Jul-25 23:32N 33°47' W 118°13'0 0.0
2014-Jul-25 22:09N 33°47' W 118°13'1 1.0
2014-Jul-25 21:32N 33°46' W 118°13'3 3.3
2014-Jul-25 20:33N 33°43' W 118°14'3 0.9
2014-Jul-25 17:15N 33°45' W 118°16'0 0.0
2014-Jul-25 16:21N 33°45' W 118°16'0 0.0
2014-Jul-25 13:18N 33°45' W 118°16'2 2.2
2014-Jul-25 12:19N 33°43' W 118°16'1 0.8
2014-Jul-25 11:33N 33°44' W 118°16'0 0.0
2014-Jul-25 10:33N 33°44' W 118°16'0 0.0
2014-Jul-25 09:33N 33°44' W 118°16'0 0.0
2014-Jul-25 08:32N 33°44' W 118°16'0 0.0
2014-Jul-25 07:33N 33°44' W 118°16'0 0.0
2014-Jul-25 06:33N 33°44' W 118°16'0 0.0
2014-Jul-25 05:33N 33°44' W 118°16'0 0.0
2014-Jul-25 04:33N 33°44' W 118°16'0 0.0
2014-Jul-25 03:33N 33°44' W 118°16'0 0.0
2014-Jul-25 02:33N 33°44' W 118°16'0 0.0
2014-Jul-25 01:33N 33°44' W 118°16'0 0.0
2014-Jul-25 00:33N 33°44' W 118°16'0 0.0
2014-Jul-24 23:33N 33°44' W 118°16'0 0.0
2014-Jul-24 22:33N 33°44' W 118°16'0 0.1
2014-Jul-24 21:33N 33°44' W 118°16'0 0.0
2014-Jul-24 20:33N 33°44' W 118°16'0 0.0
2014-Jul-24 19:33N 33°44' W 118°16'0 0.1
2014-Jul-24 18:33N 33°44' W 118°16'0 0.0
2014-Jul-24 17:31N 33°44' W 118°16'0 0.0
2014-Jul-24 16:33N 33°44' W 118°16'0 0.0
2014-Jul-24 15:33N 33°44' W 118°16'0 0.0
2014-Jul-24 14:33N 33°44' W 118°16'0 0.0
2014-Jul-24 13:33N 33°44' W 118°16'0 0.0
2014-Jul-24 12:33N 33°44' W 118°16'0 0.0
2014-Jul-24 11:33N 33°44' W 118°16'0 0.0
2014-Jul-24 10:33N 33°44' W 118°16'0 0.0
2014-Jul-24 09:33N 33°44' W 118°16'0 0.0
2014-Jul-24 08:33N 33°44' W 118°16'0 0.0
2014-Jul-24 07:33N 33°44' W 118°16'0 0.0
2014-Jul-24 06:33N 33°44' W 118°16'0 0.0
2014-Jul-24 05:33N 33°44' W 118°16'0 0.0
2014-Jul-24 04:33N 33°44' W 118°16'0 0.0
2014-Jul-24 03:33N 33°44' W 118°16'1 0.7
2014-Jul-24 02:33N 33°44' W 118°15'0 0.3
2014-Jul-24 01:33N 33°44' W 118°15'0 0.4
2014-Jul-24 00:33N 33°44' W 118°16'0 0.0
2014-Jul-23 23:33N 33°44' W 118°16'0 0.0
2014-Jul-23 22:33N 33°44' W 118°16'0 0.0
2014-Jul-23 21:33N 33°44' W 118°16'0 0.0
2014-Jul-23 20:31N 33°44' W 118°16'0 0.0
2014-Jul-23 19:33N 33°44' W 118°16'0 0.0
2014-Jul-23 18:33N 33°44' W 118°16'0 0.0
2014-Jul-23 17:33N 33°44' W 118°16'0 0.0
2014-Jul-23 16:33N 33°44' W 118°16'0 0.0
2014-Jul-23 15:33N 33°44' W 118°16'0 0.0
2014-Jul-23 14:30N 33°44' W 118°16'0 0.0
2014-Jul-23 13:33N 33°44' W 118°16'0 0.0
2014-Jul-23 12:25N 33°44' W 118°16'0 0.0
2014-Jul-23 09:16N 33°44' W 118°16'0 0.0
2014-Jul-23 08:30N 33°44' W 118°16'0 0.0
2014-Jul-23 07:33N 33°44' W 118°16'0 0.0
2014-Jul-23 06:33N 33°44' W 118°16'0 0.0
2014-Jul-23 05:33N 33°44' W 118°16'0 0.0
2014-Jul-23 04:33N 33°44' W 118°16'0 0.0
2014-Jul-23 03:33N 33°44' W 118°16'0 0.0
2014-Jul-23 02:33N 33°44' W 118°16'0 0.0
2014-Jul-23 01:26N 33°44' W 118°16'0 0.0
2014-Jul-23 00:33N 33°44' W 118°16'0 0.0
2014-Jul-22 23:33N 33°44' W 118°16'  
Track history (hours):
 
Tides and Currents Weather Stations Pressure Air Temp Water Temp Dewpoint Dewpoint Depression Visibility Wind Speed Wind Dir Waves Ship Positions

Ernest Campbell

More information available from US FCC via Universal Licensing System and Coast Guard Vessel Documentation Center.

Last reported at 2014-Aug-01 22:33 UTC. Time now 2014-Aug-01 22:41 UTC.
Position N 38°23' W 123°46'.

Length 33 m; draft 4.6 m.

Type: Tow > 200 m length. MMSI: 366882320.

Date/timePositionNaut miles runAvg speedWind from/ knotsBaromVisibWave heightAir tempDewpointWater temp
2014-Aug-01 22:33N 38°23' W 123°46'5 5.2
2014-Aug-01 21:33N 38°18' W 123°44'5 5.2
2014-Aug-01 20:33N 38°13' W 123°43'6 5.7
2014-Aug-01 19:33N 38°07' W 123°41'6 5.5
2014-Aug-01 18:33N 38°02' W 123°40'6 5.5
2014-Aug-01 17:33N 37°57' W 123°38'5 5.4
2014-Aug-01 16:33N 37°52' W 123°36'5 5.2
2014-Aug-01 15:33N 37°47' W 123°34'5 4.9
2014-Aug-01 14:33N 37°42' W 123°31'5 4.9
2014-Aug-01 13:33N 37°38' W 123°27'5 4.8
2014-Aug-01 12:33N 37°34' W 123°24'5 5.0
2014-Aug-01 11:33N 37°30' W 123°21'6 5.6
2014-Aug-01 10:33N 37°26' W 123°16'6 5.9
2014-Aug-01 09:33N 37°21' W 123°12'6 6.2
2014-Aug-01 08:33N 37°15' W 123°08'7 6.7
2014-Aug-01 07:33N 37°10' W 123°04'7 6.8
2014-Aug-01 06:33N 37°04' W 122°59'7 6.8
2014-Aug-01 05:33N 36°58' W 122°55'6 6.4
2014-Aug-01 04:33N 36°53' W 122°50'6 6.2
2014-Aug-01 03:33N 36°48' W 122°46'6 6.2
2014-Aug-01 02:33N 36°43' W 122°42'6 6.0
2014-Aug-01 01:33N 36°38' W 122°37'6 6.0
2014-Aug-01 00:33N 36°32' W 122°33'6 6.1
2014-Jul-31 23:33N 36°27' W 122°30'6 6.1
2014-Jul-31 22:32N 36°22' W 122°25'6 6.2
2014-Jul-31 21:33N 36°17' W 122°21'6 6.2
2014-Jul-31 20:33N 36°13' W 122°16'6 6.4
2014-Jul-31 19:33N 36°07' W 122°11'6 6.5
2014-Jul-31 18:33N 36°02' W 122°07'7 6.7
2014-Jul-31 17:33N 35°56' W 122°03'6 6.4
2014-Jul-31 16:33N 35°50' W 121°59'6 6.2
2014-Jul-31 15:33N 35°45' W 121°55'6 6.4
2014-Jul-31 14:33N 35°40' W 121°51'7 6.7
2014-Jul-31 13:33N 35°34' W 121°46'7 6.7
2014-Jul-31 12:33N 35°29' W 121°41'7 6.7
2014-Jul-31 11:33N 35°23' W 121°36'9 6.8
2014-Jul-31 10:18N 35°16' W 121°31'18 6.5
2014-Jul-31 07:33N 35°00' W 121°20'8 6.6
2014-Jul-31 06:17N 34°54' W 121°14'5 6.5
2014-Jul-31 05:33N 34°50' W 121°11'7 6.6
2014-Jul-31 04:33N 34°45' W 121°06'6 6.3
2014-Jul-31 03:33N 34°39' W 121°02'6 6.0
2014-Jul-31 02:33N 34°34' W 120°58'12 5.6
2014-Jul-31 00:20N 34°26' W 120°47'5 6.0
2014-Jul-30 23:31N 34°24' W 120°41'6 5.8
2014-Jul-30 22:28N 34°23' W 120°34'6 6.1
2014-Jul-30 21:33N 34°21' W 120°28'7 6.1
2014-Jul-30 20:29N 34°19' W 120°20'6 6.4
2014-Jul-30 19:32N 34°18' W 120°13'7 7.1
2014-Jul-30 18:33N 34°16' W 120°05'7 7.0
2014-Jul-30 17:33N 34°14' W 119°57'7 6.8
2014-Jul-30 16:31N 34°12' W 119°49'21 6.4
2014-Jul-30 13:13N 34°07' W 119°24'4 6.1
2014-Jul-30 12:33N 34°06' W 119°20'13 6.7
2014-Jul-30 10:33N 33°60' W 119°05'7 7.5
2014-Jul-30 09:34N 33°56' W 118°57'10 7.3
2014-Jul-30 08:13N 33°52' W 118°47'5 7.1
2014-Jul-30 07:33N 33°49' W 118°42'7 7.0
2014-Jul-30 06:33N 33°45' W 118°35'7 7.0
2014-Jul-30 05:33N 33°42' W 118°28'7 7.3
2014-Jul-30 04:33N 33°39' W 118°20'5 5.4
2014-Jul-30 03:33N 33°43' W 118°16'2 2.3
2014-Jul-30 02:32N 33°45' W 118°16'0 0.0
2014-Jul-30 01:33N 33°45' W 118°16'0 0.0
2014-Jul-30 00:33N 33°45' W 118°16'0 0.0
2014-Jul-29 23:33N 33°45' W 118°16'0 0.0
2014-Jul-29 22:33N 33°45' W 118°16'0 0.0
2014-Jul-29 21:33N 33°45' W 118°16'0 0.0
2014-Jul-29 20:33N 33°45' W 118°16'0 0.0
2014-Jul-29 19:33N 33°45' W 118°16'0 0.0
2014-Jul-29 18:32N 33°45' W 118°16'0 0.0
2014-Jul-29 17:33N 33°45' W 118°16'0 0.0
2014-Jul-29 16:33N 33°45' W 118°16'0 0.0
2014-Jul-29 15:33N 33°45' W 118°16'0 0.0
2014-Jul-29 14:33N 33°45' W 118°16'0 0.0
2014-Jul-29 13:33N 33°45' W 118°16'0 0.0
2014-Jul-29 12:33N 33°45' W 118°16'0 0.0
2014-Jul-29 11:33N 33°45' W 118°16'0 0.0
2014-Jul-29 10:33N 33°45' W 118°16'0 0.0
2014-Jul-29 09:33N 33°45' W 118°16'0 0.0
2014-Jul-29 08:33N 33°45' W 118°16'0 0.0
2014-Jul-29 07:34N 33°45' W 118°16'0 0.0
2014-Jul-29 06:33N 33°45' W 118°16'0 0.0
2014-Jul-29 05:33N 33°45' W 118°16'0 0.0
2014-Jul-29 04:33N 33°45' W 118°16'0 0.1
2014-Jul-29 03:33N 33°45' W 118°17'3 3.3
2014-Jul-29 02:33N 33°44' W 118°13'1 1.2
2014-Jul-29 01:33N 33°45' W 118°13'0 0.0
2014-Jul-29 00:33N 33°45' W 118°13'0 0.0
2014-Jul-28 23:33N 33°45' W 118°13'0 0.0
2014-Jul-28 22:33N 33°45' W 118°13'0 0.0
2014-Jul-28 21:33N 33°45' W 118°13'0 0.0
2014-Jul-28 20:33N 33°45' W 118°13'0 0.0
2014-Jul-28 19:33N 33°45' W 118°13'0 0.0
2014-Jul-28 18:33N 33°45' W 118°13'0 0.0
2014-Jul-28 17:33N 33°45' W 118°13'0 0.0
2014-Jul-28 16:33N 33°45' W 118°13'0 0.0
2014-Jul-28 15:33N 33°45' W 118°13'0 0.0
2014-Jul-28 14:33N 33°45' W 118°13'0 0.0
2014-Jul-28 13:33N 33°45' W 118°13'0 0.0
2014-Jul-28 12:33N 33°45' W 118°13'0 0.0
2014-Jul-28 11:34N 33°45' W 118°13'0 0.0
2014-Jul-28 10:33N 33°45' W 118°13'0 0.0
2014-Jul-28 09:33N 33°45' W 118°13'0 0.0
2014-Jul-28 08:33N 33°45' W 118°13'0 0.0
2014-Jul-28 07:33N 33°45' W 118°13'0 0.0
2014-Jul-28 06:33N 33°45' W 118°13'0 0.0
2014-Jul-28 05:33N 33°45' W 118°13'0 0.0
2014-Jul-28 04:33N 33°45' W 118°13'0 0.0
2014-Jul-28 03:33N 33°45' W 118°13'0 0.0
2014-Jul-28 02:33N 33°45' W 118°13'0 0.0
2014-Jul-28 01:33N 33°45' W 118°13'0 0.0
2014-Jul-28 00:33N 33°45' W 118°13'2 2.4
2014-Jul-27 23:33N 33°43' W 118°14'2 1.6
2014-Jul-27 22:34N 33°44' W 118°16'0 0.0
2014-Jul-27 21:33N 33°44' W 118°16'0 0.0
2014-Jul-27 20:33N 33°44' W 118°16'0 0.0
2014-Jul-27 19:33N 33°44' W 118°16'0 0.0
2014-Jul-27 18:33N 33°44' W 118°16'0 0.0
2014-Jul-27 17:33N 33°44' W 118°16'0 0.0
2014-Jul-27 16:33N 33°44' W 118°16'0 0.0
2014-Jul-27 15:33N 33°44' W 118°16'0 0.0
2014-Jul-27 14:33N 33°44' W 118°16'0 0.0
2014-Jul-27 13:33N 33°44' W 118°16'0 0.0
2014-Jul-27 12:33N 33°44' W 118°16'0 0.0
2014-Jul-27 11:33N 33°44' W 118°16'0 0.0
2014-Jul-27 10:33N 33°44' W 118°16'0 0.0
2014-Jul-27 09:33N 33°44' W 118°16'0 0.0
2014-Jul-27 08:33N 33°44' W 118°16'0 0.0
2014-Jul-27 07:33N 33°44' W 118°16'0 0.0
2014-Jul-27 06:33N 33°44' W 118°16'0 0.0
2014-Jul-27 05:33N 33°44' W 118°16'0 0.0
2014-Jul-27 04:33N 33°44' W 118°16'0 0.0
2014-Jul-27 03:33N 33°44' W 118°16'0 0.0
2014-Jul-27 02:33N 33°44' W 118°16'0 0.0
2014-Jul-27 01:33N 33°44' W 118°16'0 0.0
2014-Jul-27 00:33N 33°44' W 118°16'0 0.1
2014-Jul-26 23:33N 33°44' W 118°16'1 0.7
2014-Jul-26 22:34N 33°43' W 118°16'4 4.1
2014-Jul-26 21:33N 33°47' W 118°13'0 0.0
2014-Jul-26 20:26N 33°47' W 118°13'0 0.0
2014-Jul-26 19:18N 33°47' W 118°13'0 0.0
2014-Jul-26 18:07N 33°47' W 118°13'0 0.0
2014-Jul-26 17:29N 33°47' W 118°13'0 0.0
2014-Jul-26 16:30N 33°47' W 118°13'0 0.0
2014-Jul-26 15:31N 33°47' W 118°13'0 0.0
2014-Jul-26 14:33N 33°47' W 118°13'0 0.0
2014-Jul-26 13:33N 33°47' W 118°13'0 0.0
2014-Jul-26 12:33N 33°47' W 118°13'0 0.0
2014-Jul-26 11:29N 33°47' W 118°13'0 0.0
2014-Jul-26 10:33N 33°47' W 118°13'0 0.0
2014-Jul-26 08:29N 33°47' W 118°13'0 0.0
2014-Jul-26 07:29N 33°47' W 118°13'0 0.0
2014-Jul-26 06:33N 33°47' W 118°13'0 0.0
2014-Jul-26 05:31N 33°47' W 118°13'0 0.0
2014-Jul-26 04:33N 33°47' W 118°13'0 0.0
2014-Jul-26 03:33N 33°47' W 118°13'0 0.0
2014-Jul-26 02:33N 33°47' W 118°13'0 0.0
2014-Jul-26 01:33N 33°47' W 118°13'0 0.0
2014-Jul-26 00:33N 33°47' W 118°13'0 0.0
2014-Jul-25 23:32N 33°47' W 118°13'0 0.0
2014-Jul-25 22:09N 33°47' W 118°13'1 1.0
2014-Jul-25 21:32N 33°46' W 118°13'3 3.3
2014-Jul-25 20:33N 33°43' W 118°14'3 0.9
2014-Jul-25 17:15N 33°45' W 118°16'0 0.0
2014-Jul-25 16:21N 33°45' W 118°16'0 0.0
2014-Jul-25 13:18N 33°45' W 118°16'2 2.2
2014-Jul-25 12:19N 33°43' W 118°16'1 0.8
2014-Jul-25 11:33N 33°44' W 118°16'0 0.0
2014-Jul-25 10:33N 33°44' W 118°16'0 0.0
2014-Jul-25 09:33N 33°44' W 118°16'0 0.0
2014-Jul-25 08:32N 33°44' W 118°16'0 0.0
2014-Jul-25 07:33N 33°44' W 118°16'0 0.0
2014-Jul-25 06:33N 33°44' W 118°16'0 0.0
2014-Jul-25 05:33N 33°44' W 118°16'0 0.0
2014-Jul-25 04:33N 33°44' W 118°16'0 0.0
2014-Jul-25 03:33N 33°44' W 118°16'0 0.0
2014-Jul-25 02:33N 33°44' W 118°16'0 0.0
2014-Jul-25 01:33N 33°44' W 118°16'0 0.0
2014-Jul-25 00:33N 33°44' W 118°16'0 0.0
2014-Jul-24 23:33N 33°44' W 118°16'0 0.0
2014-Jul-24 22:33N 33°44' W 118°16'0 0.1
2014-Jul-24 21:33N 33°44' W 118°16'0 0.0
2014-Jul-24 20:33N 33°44' W 118°16'0 0.0
2014-Jul-24 19:33N 33°44' W 118°16'0 0.1
2014-Jul-24 18:33N 33°44' W 118°16'0 0.0
2014-Jul-24 17:31N 33°44' W 118°16'0 0.0
2014-Jul-24 16:33N 33°44' W 118°16'0 0.0
2014-Jul-24 15:33N 33°44' W 118°16'0 0.0
2014-Jul-24 14:33N 33°44' W 118°16'0 0.0
2014-Jul-24 13:33N 33°44' W 118°16'0 0.0
2014-Jul-24 12:33N 33°44' W 118°16'0 0.0
2014-Jul-24 11:33N 33°44' W 118°16'0 0.0
2014-Jul-24 10:33N 33°44' W 118°16'0 0.0
2014-Jul-24 09:33N 33°44' W 118°16'0 0.0
2014-Jul-24 08:33N 33°44' W 118°16'0 0.0
2014-Jul-24 07:33N 33°44' W 118°16'0 0.0
2014-Jul-24 06:33N 33°44' W 118°16'0 0.0
2014-Jul-24 05:33N 33°44' W 118°16'0 0.0
2014-Jul-24 04:33N 33°44' W 118°16'0 0.0
2014-Jul-24 03:33N 33°44' W 118°16'1 0.7
2014-Jul-24 02:33N 33°44' W 118°15'0 0.3
2014-Jul-24 01:33N 33°44' W 118°15'0 0.4
2014-Jul-24 00:33N 33°44' W 118°16'0 0.0
2014-Jul-23 23:33N 33°44' W 118°16'0 0.0
2014-Jul-23 22:33N 33°44' W 118°16'0 0.0
2014-Jul-23 21:33N 33°44' W 118°16'0 0.0
2014-Jul-23 20:31N 33°44' W 118°16'0 0.0
2014-Jul-23 19:33N 33°44' W 118°16'0 0.0
2014-Jul-23 18:33N 33°44' W 118°16'0 0.0
2014-Jul-23 17:33N 33°44' W 118°16'0 0.0
2014-Jul-23 16:33N 33°44' W 118°16'0 0.0
2014-Jul-23 15:33N 33°44' W 118°16'0 0.0
2014-Jul-23 14:30N 33°44' W 118°16'0 0.0
2014-Jul-23 13:33N 33°44' W 118°16'0 0.0
2014-Jul-23 12:25N 33°44' W 118°16'0 0.0
2014-Jul-23 09:16N 33°44' W 118°16'0 0.0
2014-Jul-23 08:30N 33°44' W 118°16'0 0.0
2014-Jul-23 07:33N 33°44' W 118°16'0 0.0
2014-Jul-23 06:33N 33°44' W 118°16'0 0.0
2014-Jul-23 05:33N 33°44' W 118°16'0 0.0
2014-Jul-23 04:33N 33°44' W 118°16'0 0.0
2014-Jul-23 03:33N 33°44' W 118°16'0 0.0
2014-Jul-23 02:33N 33°44' W 118°16'0 0.0
2014-Jul-23 01:26N 33°44' W 118°16'0 0.0
2014-Jul-23 00:33N 33°44' W 118°16'0 0.0
2014-Jul-22 23:33N 33°44' W 118°16'  

Dump ship's entire track history